White Plains, NY

10:20 PM EST on December 27, 2014 (GMT -0500)
scarsdale/nr | Change Station
CLOSE
Current Station
Personal Weather Station
Location: Scarsdale, NY
Elevation: 249 ft
Nearby Weather Stations

Elev 249 ft 41.01 °N, 73.79 °W | Updated 51 seconds ago

Clear
Clear
40.6 °F
Feels Like 41 °F
N
0.0
Wind Variable Wind from NW
Gusts 0.0 mph

Today
High -- | Low -- °F
--% Chance of Precip.
Yesterday
High -- | Low -- °F
Precip. -- in
7:19 AM 4:33 PM
Waxing Crescent, 43% visible
Pressure 30.12 in
Visibility 10.0 miles
Clouds Clear
Windchill 41 °F
Dew Point 35 °F
Humidity 79%
Rainfall 0.00 in
Snow Depth Not available.
UV 0 out of 12
Pollen .10 out of 12
Air Quality Not available.
Flu Activity Not available.
METAR KHPN 280256Z 00000KT 10SM CLR 07/02 A3011 RMK AO2 SLP199 T00670017 56014

More Conditions Fewer Conditions

Pressure 30.12 in
Visibility 10.0 miles
Clouds Clear
Windchill 41 °F
Dew Point 35 °F
Humidity 79%
Rainfall 0.00 in
Snow Depth Not available.
UV 0 out of 12
Pollen .10 out of 12
Air Quality Not available.
Flu Activity Not available.
METAR KHPN 280256Z 00000KT 10SM CLR 07/02 A3011 RMK AO2 SLP199 T00670017 56014

More Conditions Fewer Conditions

10-Day Weather Forecast

Almanac

Astronomy

Dec. 27, 2014 Rise Set
Actual Time
Civil Twilight
Nautical Twilight
Astronomical Twilight
Moon
Length of Visible Light
Length of Day
Tomorrow will be .
, % of the Moon is Illuminated

Today's Extremes

State Highs State Lows

Community

WunderPhotos

Upload Photos

1,781,179 photos uploaded!

WunderBlogs® & News

Nearby

Air Quality

  Air Quality AQ Index Pollutant
Not available.

Snow Depth

Station Depth Elevation

Earthquake Activity

City Distance Mag. Time & Date
Minimum magnitude displayed is 2.5.

Coastal Water Temperatures

Place Temperature

Nearby Weather Stations